sensor_id;sensor_type;location;lat;lon;timestamp;P1;durP1;ratioP1;P2;durP2;ratioP2
75820;SDS011;64454;51.984;9.838;2023-04-16T00:00:11;27.20;;;20.90;;
75820;SDS011;64454;51.984;9.838;2023-04-16T00:02:38;26.05;;;20.65;;
75820;SDS011;64454;51.984;9.838;2023-04-16T00:05:05;27.30;;;22.13;;
75820;SDS011;64454;51.984;9.838;2023-04-16T00:07:32;26.63;;;21.20;;
75820;SDS011;64454;51.984;9.838;2023-04-16T00:09:59;29.10;;;21.33;;
75820;SDS011;64454;51.984;9.838;2023-04-16T00:12:26;27.77;;;21.77;;
75820;SDS011;64454;51.984;9.838;2023-04-16T00:14:53;26.10;;;22.10;;
75820;SDS011;64454;51.984;9.838;2023-04-16T00:17:21;29.80;;;22.58;;
75820;SDS011;64454;51.984;9.838;2023-04-16T00:19:48;26.92;;;21.35;;
75820;SDS011;64454;51.984;9.838;2023-04-16T00:22:15;30.00;;;22.67;;
75820;SDS011;64454;51.984;9.838;2023-04-16T00:24:42;29.70;;;21.90;;
75820;SDS011;64454;51.984;9.838;2023-04-16T00:27:09;31.23;;;23.75;;
75820;SDS011;64454;51.984;9.838;2023-04-16T00:29:36;30.55;;;23.75;;
75820;SDS011;64454;51.984;9.838;2023-04-16T00:32:02;32.08;;;24.80;;
75820;SDS011;64454;51.984;9.838;2023-04-16T00:34:31;27.90;;;23.67;;
75820;SDS011;64454;51.984;9.838;2023-04-16T00:36:58;29.63;;;23.80;;
75820;SDS011;64454;51.984;9.838;2023-04-16T00:39:25;31.65;;;24.15;;
75820;SDS011;64454;51.984;9.838;2023-04-16T00:41:52;31.42;;;24.33;;
75820;SDS011;64454;51.984;9.838;2023-04-16T00:44:19;30.95;;;23.80;;
75820;SDS011;64454;51.984;9.838;2023-04-16T00:46:46;32.37;;;25.00;;
75820;SDS011;64454;51.984;9.838;2023-04-16T00:49:14;30.90;;;24.80;;
75820;SDS011;64454;51.984;9.838;2023-04-16T00:51:45;31.77;;;23.75;;
75820;SDS011;64454;51.984;9.838;2023-04-16T00:54:12;31.13;;;23.88;;
75820;SDS011;64454;51.984;9.838;2023-04-16T00:56:39;29.77;;;23.45;;
75820;SDS011;64454;51.984;9.838;2023-04-16T00:59:06;30.60;;;23.73;;
75820;SDS011;64454;51.984;9.838;2023-04-16T01:01:34;28.38;;;23.63;;
75820;SDS011;64454;51.984;9.838;2023-04-16T01:04:00;31.90;;;25.20;;
75820;SDS011;64454;51.984;9.838;2023-04-16T01:06:27;26.75;;;22.10;;
75820;SDS011;64454;51.984;9.838;2023-04-16T01:08:56;28.55;;;23.60;;
75820;SDS011;64454;51.984;9.838;2023-04-16T01:11:22;27.33;;;20.77;;
75820;SDS011;64454;51.984;9.838;2023-04-16T01:13:49;25.17;;;20.65;;
75820;SDS011;64454;51.984;9.838;2023-04-16T01:16:16;25.95;;;20.52;;
75820;SDS011;64454;51.984;9.838;2023-04-16T01:18:44;27.40;;;22.23;;
75820;SDS011;64454;51.984;9.838;2023-04-16T01:21:12;27.95;;;22.92;;
75820;SDS011;64454;51.984;9.838;2023-04-16T01:23:39;26.67;;;21.98;;
75820;SDS011;64454;51.984;9.838;2023-04-16T01:26:06;29.73;;;23.55;;
75820;SDS011;64454;51.984;9.838;2023-04-16T01:28:33;30.33;;;24.23;;
75820;SDS011;64454;51.984;9.838;2023-04-16T01:31:00;30.35;;;24.23;;
75820;SDS011;64454;51.984;9.838;2023-04-16T01:33:27;33.40;;;25.50;;
75820;SDS011;64454;51.984;9.838;2023-04-16T01:35:54;32.00;;;24.90;;
75820;SDS011;64454;51.984;9.838;2023-04-16T01:38:22;33.55;;;25.90;;
75820;SDS011;64454;51.984;9.838;2023-04-16T01:40:49;31.75;;;25.95;;
75820;SDS011;64454;51.984;9.838;2023-04-16T01:43:21;34.15;;;26.30;;
75820;SDS011;64454;51.984;9.838;2023-04-16T01:45:48;35.30;;;26.67;;
75820;SDS011;64454;51.984;9.838;2023-04-16T01:48:15;34.35;;;26.45;;
75820;SDS011;64454;51.984;9.838;2023-04-16T01:50:42;36.28;;;27.85;;
75820;SDS011;64454;51.984;9.838;2023-04-16T01:53:09;36.05;;;26.55;;
75820;SDS011;64454;51.984;9.838;2023-04-16T01:55:37;31.35;;;26.85;;
75820;SDS011;64454;51.984;9.838;2023-04-16T01:58:04;33.78;;;26.80;;
75820;SDS011;64454;51.984;9.838;2023-04-16T02:00:34;34.92;;;26.65;;
75820;SDS011;64454;51.984;9.838;2023-04-16T02:03:01;32.72;;;25.27;;
75820;SDS011;64454;51.984;9.838;2023-04-16T02:05:28;34.83;;;25.80;;
75820;SDS011;64454;51.984;9.838;2023-04-16T02:07:55;38.15;;;26.80;;
75820;SDS011;64454;51.984;9.838;2023-04-16T02:10:22;42.43;;;28.03;;
75820;SDS011;64454;51.984;9.838;2023-04-16T02:12:50;38.90;;;26.70;;
75820;SDS011;64454;51.984;9.838;2023-04-16T02:15:17;37.83;;;27.42;;
75820;SDS011;64454;51.984;9.838;2023-04-16T02:17:44;35.80;;;27.30;;
75820;SDS011;64454;51.984;9.838;2023-04-16T02:20:12;37.90;;;28.73;;
75820;SDS011;64454;51.984;9.838;2023-04-16T02:22:39;37.10;;;28.83;;
75820;SDS011;64454;51.984;9.838;2023-04-16T02:25:07;43.25;;;29.50;;
75820;SDS011;64454;51.984;9.838;2023-04-16T02:27:34;41.80;;;28.83;;
75820;SDS011;64454;51.984;9.838;2023-04-16T02:30:03;38.13;;;29.08;;
75820;SDS011;64454;51.984;9.838;2023-04-16T02:32:31;39.42;;;30.85;;
75820;SDS011;64454;51.984;9.838;2023-04-16T02:34:58;43.33;;;31.00;;
75820;SDS011;64454;51.984;9.838;2023-04-16T02:37:24;41.47;;;30.50;;
75820;SDS011;64454;51.984;9.838;2023-04-16T02:39:51;46.90;;;31.60;;
75820;SDS011;64454;51.984;9.838;2023-04-16T02:42:18;44.13;;;31.33;;
75820;SDS011;64454;51.984;9.838;2023-04-16T02:44:45;39.58;;;29.35;;
75820;SDS011;64454;51.984;9.838;2023-04-16T02:47:13;43.20;;;30.92;;
75820;SDS011;64454;51.984;9.838;2023-04-16T02:49:40;43.08;;;29.50;;
75820;SDS011;64454;51.984;9.838;2023-04-16T02:52:07;45.22;;;31.75;;
75820;SDS011;64454;51.984;9.838;2023-04-16T02:54:33;40.57;;;31.43;;
75820;SDS011;64454;51.984;9.838;2023-04-16T02:57:00;43.17;;;31.67;;
75820;SDS011;64454;51.984;9.838;2023-04-16T02:59:27;42.92;;;30.55;;
75820;SDS011;64454;51.984;9.838;2023-04-16T03:01:54;44.65;;;31.05;;
75820;SDS011;64454;51.984;9.838;2023-04-16T03:04:22;42.80;;;30.60;;
75820;SDS011;64454;51.984;9.838;2023-04-16T03:06:49;44.30;;;31.80;;
75820;SDS011;64454;51.984;9.838;2023-04-16T03:09:16;45.13;;;31.70;;
75820;SDS011;64454;51.984;9.838;2023-04-16T03:11:45;43.90;;;32.45;;
75820;SDS011;64454;51.984;9.838;2023-04-16T03:14:12;45.25;;;30.90;;
75820;SDS011;64454;51.984;9.838;2023-04-16T03:16:41;43.25;;;31.60;;
75820;SDS011;64454;51.984;9.838;2023-04-16T03:19:07;47.83;;;31.50;;
75820;SDS011;64454;51.984;9.838;2023-04-16T03:21:36;45.35;;;31.92;;
75820;SDS011;64454;51.984;9.838;2023-04-16T03:24:03;44.13;;;31.30;;
75820;SDS011;64454;51.984;9.838;2023-04-16T03:26:30;43.83;;;31.58;;
75820;SDS011;64454;51.984;9.838;2023-04-16T03:28:57;47.17;;;32.72;;
75820;SDS011;64454;51.984;9.838;2023-04-16T03:31:24;44.72;;;31.13;;
75820;SDS011;64454;51.984;9.838;2023-04-16T03:33:50;45.83;;;32.55;;
75820;SDS011;64454;51.984;9.838;2023-04-16T03:36:17;47.88;;;32.47;;
75820;SDS011;64454;51.984;9.838;2023-04-16T03:38:46;46.70;;;32.63;;
75820;SDS011;64454;51.984;9.838;2023-04-16T03:41:13;44.35;;;30.77;;
75820;SDS011;64454;51.984;9.838;2023-04-16T03:43:39;44.50;;;30.75;;
75820;SDS011;64454;51.984;9.838;2023-04-16T03:46:06;44.83;;;30.77;;
75820;SDS011;64454;51.984;9.838;2023-04-16T03:48:33;43.08;;;30.40;;
75820;SDS011;64454;51.984;9.838;2023-04-16T03:51:00;46.95;;;30.70;;
75820;SDS011;64454;51.984;9.838;2023-04-16T03:53:27;42.05;;;30.35;;
75820;SDS011;64454;51.984;9.838;2023-04-16T03:55:55;45.88;;;32.33;;
75820;SDS011;64454;51.984;9.838;2023-04-16T03:58:22;44.03;;;30.80;;
75820;SDS011;64454;51.984;9.838;2023-04-16T04:00:50;47.00;;;31.95;;
75820;SDS011;64454;51.984;9.838;2023-04-16T04:03:18;44.78;;;31.27;;
75820;SDS011;64454;51.984;9.838;2023-04-16T04:05:45;45.95;;;31.65;;
75820;SDS011;64454;51.984;9.838;2023-04-16T04:08:12;47.60;;;31.42;;
75820;SDS011;64454;51.984;9.838;2023-04-16T04:10:39;42.35;;;30.58;;
75820;SDS011;64454;51.984;9.838;2023-04-16T04:13:07;41.58;;;29.05;;
75820;SDS011;64454;51.984;9.838;2023-04-16T04:15:34;39.77;;;28.87;;
75820;SDS011;64454;51.984;9.838;2023-04-16T04:18:01;42.80;;;30.77;;
75820;SDS011;64454;51.984;9.838;2023-04-16T04:20:28;42.75;;;29.15;;
75820;SDS011;64454;51.984;9.838;2023-04-16T04:22:55;44.30;;;30.17;;
75820;SDS011;64454;51.984;9.838;2023-04-16T04:25:22;48.30;;;30.52;;
75820;SDS011;64454;51.984;9.838;2023-04-16T04:27:49;46.50;;;29.30;;
75820;SDS011;64454;51.984;9.838;2023-04-16T04:30:18;43.20;;;29.05;;
75820;SDS011;64454;51.984;9.838;2023-04-16T04:32:44;41.80;;;29.23;;
75820;SDS011;64454;51.984;9.838;2023-04-16T04:35:11;40.40;;;27.35;;
75820;SDS011;64454;51.984;9.838;2023-04-16T04:37:38;40.83;;;27.10;;
75820;SDS011;64454;51.984;9.838;2023-04-16T04:40:06;38.58;;;28.17;;
75820;SDS011;64454;51.984;9.838;2023-04-16T04:42:35;39.97;;;27.38;;
75820;SDS011;64454;51.984;9.838;2023-04-16T04:45:03;41.87;;;27.37;;
75820;SDS011;64454;51.984;9.838;2023-04-16T04:47:32;40.95;;;26.10;;
75820;SDS011;64454;51.984;9.838;2023-04-16T04:49:59;40.05;;;27.00;;
75820;SDS011;64454;51.984;9.838;2023-04-16T04:52:26;33.67;;;23.70;;
75820;SDS011;64454;51.984;9.838;2023-04-16T04:54:52;37.92;;;26.42;;
75820;SDS011;64454;51.984;9.838;2023-04-16T04:57:20;38.05;;;25.13;;
75820;SDS011;64454;51.984;9.838;2023-04-16T04:59:47;39.67;;;25.87;;
75820;SDS011;64454;51.984;9.838;2023-04-16T05:02:13;40.30;;;26.73;;
75820;SDS011;64454;51.984;9.838;2023-04-16T05:04:42;36.10;;;25.43;;
75820;SDS011;64454;51.984;9.838;2023-04-16T05:07:08;39.65;;;24.88;;
75820;SDS011;64454;51.984;9.838;2023-04-16T05:09:35;38.25;;;25.42;;
75820;SDS011;64454;51.984;9.838;2023-04-16T05:12:02;39.88;;;25.88;;
75820;SDS011;64454;51.984;9.838;2023-04-16T05:14:29;39.15;;;26.15;;
75820;SDS011;64454;51.984;9.838;2023-04-16T05:16:56;38.25;;;24.65;;
75820;SDS011;64454;51.984;9.838;2023-04-16T05:19:23;37.90;;;23.85;;
75820;SDS011;64454;51.984;9.838;2023-04-16T05:21:51;38.97;;;26.35;;
75820;SDS011;64454;51.984;9.838;2023-04-16T05:24:19;40.05;;;24.63;;
75820;SDS011;64454;51.984;9.838;2023-04-16T05:26:47;35.03;;;25.10;;
75820;SDS011;64454;51.984;9.838;2023-04-16T05:29:14;36.90;;;25.15;;
75820;SDS011;64454;51.984;9.838;2023-04-16T05:31:44;38.80;;;25.83;;
75820;SDS011;64454;51.984;9.838;2023-04-16T05:34:11;40.42;;;25.88;;
75820;SDS011;64454;51.984;9.838;2023-04-16T05:36:38;39.90;;;25.83;;
75820;SDS011;64454;51.984;9.838;2023-04-16T05:39:06;42.78;;;26.10;;
75820;SDS011;64454;51.984;9.838;2023-04-16T05:41:33;41.70;;;26.05;;
75820;SDS011;64454;51.984;9.838;2023-04-16T05:44:00;39.92;;;26.42;;
75820;SDS011;64454;51.984;9.838;2023-04-16T05:46:26;38.90;;;25.77;;
75820;SDS011;64454;51.984;9.838;2023-04-16T05:48:53;39.28;;;25.50;;
75820;SDS011;64454;51.984;9.838;2023-04-16T05:51:20;39.58;;;26.80;;
75820;SDS011;64454;51.984;9.838;2023-04-16T05:53:49;44.85;;;26.55;;
75820;SDS011;64454;51.984;9.838;2023-04-16T05:56:17;41.72;;;26.55;;
75820;SDS011;64454;51.984;9.838;2023-04-16T05:58:44;37.70;;;25.27;;
75820;SDS011;64454;51.984;9.838;2023-04-16T06:01:11;40.63;;;24.97;;
75820;SDS011;64454;51.984;9.838;2023-04-16T06:03:38;38.17;;;24.93;;
75820;SDS011;64454;51.984;9.838;2023-04-16T06:06:05;37.17;;;24.40;;
75820;SDS011;64454;51.984;9.838;2023-04-16T06:08:35;41.20;;;26.42;;
75820;SDS011;64454;51.984;9.838;2023-04-16T06:11:02;37.72;;;25.15;;
75820;SDS011;64454;51.984;9.838;2023-04-16T06:13:30;39.00;;;24.85;;
75820;SDS011;64454;51.984;9.838;2023-04-16T06:15:57;38.17;;;24.55;;
75820;SDS011;64454;51.984;9.838;2023-04-16T06:18:24;37.50;;;24.67;;
75820;SDS011;64454;51.984;9.838;2023-04-16T06:20:51;41.00;;;25.75;;
75820;SDS011;64454;51.984;9.838;2023-04-16T06:23:18;35.72;;;24.17;;
75820;SDS011;64454;51.984;9.838;2023-04-16T06:25:45;36.75;;;25.02;;
75820;SDS011;64454;51.984;9.838;2023-04-16T06:28:12;37.42;;;25.00;;
75820;SDS011;64454;51.984;9.838;2023-04-16T06:30:40;39.80;;;26.05;;
75820;SDS011;64454;51.984;9.838;2023-04-16T06:33:07;38.63;;;25.30;;
75820;SDS011;64454;51.984;9.838;2023-04-16T06:35:34;40.05;;;26.50;;
75820;SDS011;64454;51.984;9.838;2023-04-16T06:38:01;40.70;;;27.08;;
75820;SDS011;64454;51.984;9.838;2023-04-16T06:40:28;47.63;;;28.23;;
75820;SDS011;64454;51.984;9.838;2023-04-16T06:42:55;44.22;;;29.00;;
75820;SDS011;64454;51.984;9.838;2023-04-16T06:45:21;42.50;;;27.60;;
75820;SDS011;64454;51.984;9.838;2023-04-16T06:47:50;44.08;;;26.10;;
75820;SDS011;64454;51.984;9.838;2023-04-16T06:50:16;41.50;;;26.67;;
75820;SDS011;64454;51.984;9.838;2023-04-16T06:52:43;41.10;;;27.33;;
75820;SDS011;64454;51.984;9.838;2023-04-16T06:55:10;44.53;;;27.73;;
75820;SDS011;64454;51.984;9.838;2023-04-16T06:57:37;43.70;;;29.13;;
75820;SDS011;64454;51.984;9.838;2023-04-16T07:00:05;45.13;;;27.02;;
75820;SDS011;64454;51.984;9.838;2023-04-16T07:02:33;40.20;;;25.93;;
75820;SDS011;64454;51.984;9.838;2023-04-16T07:05:01;40.07;;;26.70;;
75820;SDS011;64454;51.984;9.838;2023-04-16T07:07:29;38.27;;;25.33;;
75820;SDS011;64454;51.984;9.838;2023-04-16T07:09:56;40.40;;;24.83;;
75820;SDS011;64454;51.984;9.838;2023-04-16T07:12:23;39.28;;;24.60;;
75820;SDS011;64454;51.984;9.838;2023-04-16T07:14:51;35.53;;;24.65;;
75820;SDS011;64454;51.984;9.838;2023-04-16T07:17:18;37.30;;;24.23;;
75820;SDS011;64454;51.984;9.838;2023-04-16T07:19:45;32.00;;;23.08;;
75820;SDS011;64454;51.984;9.838;2023-04-16T07:22:13;34.58;;;23.25;;
75820;SDS011;64454;51.984;9.838;2023-04-16T07:24:40;33.47;;;22.60;;
75820;SDS011;64454;51.984;9.838;2023-04-16T07:27:07;32.33;;;23.52;;
75820;SDS011;64454;51.984;9.838;2023-04-16T07:29:34;35.35;;;22.40;;
75820;SDS011;64454;51.984;9.838;2023-04-16T07:32:01;34.90;;;23.40;;
75820;SDS011;64454;51.984;9.838;2023-04-16T07:34:28;36.58;;;23.95;;
75820;SDS011;64454;51.984;9.838;2023-04-16T07:36:55;34.08;;;24.00;;
75820;SDS011;64454;51.984;9.838;2023-04-16T07:39:23;32.53;;;23.48;;
75820;SDS011;64454;51.984;9.838;2023-04-16T07:41:50;33.58;;;22.77;;
75820;SDS011;64454;51.984;9.838;2023-04-16T07:44:17;36.03;;;23.92;;
75820;SDS011;64454;51.984;9.838;2023-04-16T07:46:45;33.88;;;23.95;;
75820;SDS011;64454;51.984;9.838;2023-04-16T07:49:12;33.10;;;23.02;;
75820;SDS011;64454;51.984;9.838;2023-04-16T07:51:41;38.35;;;24.38;;
75820;SDS011;64454;51.984;9.838;2023-04-16T07:54:08;37.92;;;23.40;;
75820;SDS011;64454;51.984;9.838;2023-04-16T07:56:37;34.05;;;23.55;;
75820;SDS011;64454;51.984;9.838;2023-04-16T07:59:03;35.50;;;24.58;;
75820;SDS011;64454;51.984;9.838;2023-04-16T08:01:31;33.22;;;23.80;;
75820;SDS011;64454;51.984;9.838;2023-04-16T08:03:58;34.50;;;23.93;;
75820;SDS011;64454;51.984;9.838;2023-04-16T08:06:25;36.60;;;26.17;;
75820;SDS011;64454;51.984;9.838;2023-04-16T08:08:51;35.33;;;25.15;;
75820;SDS011;64454;51.984;9.838;2023-04-16T08:11:18;35.88;;;25.10;;
75820;SDS011;64454;51.984;9.838;2023-04-16T08:13:46;36.75;;;24.60;;
75820;SDS011;64454;51.984;9.838;2023-04-16T08:16:13;39.38;;;25.70;;
75820;SDS011;64454;51.984;9.838;2023-04-16T08:18:40;36.65;;;24.95;;
75820;SDS011;64454;51.984;9.838;2023-04-16T08:21:08;37.45;;;25.98;;
75820;SDS011;64454;51.984;9.838;2023-04-16T08:23:35;34.95;;;24.23;;
75820;SDS011;64454;51.984;9.838;2023-04-16T08:26:01;31.80;;;23.13;;
75820;SDS011;64454;51.984;9.838;2023-04-16T08:28:28;36.50;;;24.70;;
75820;SDS011;64454;51.984;9.838;2023-04-16T08:30:57;33.25;;;23.63;;
75820;SDS011;64454;51.984;9.838;2023-04-16T08:33:24;37.10;;;24.77;;
75820;SDS011;64454;51.984;9.838;2023-04-16T08:35:51;33.72;;;23.02;;
75820;SDS011;64454;51.984;9.838;2023-04-16T08:38:17;34.38;;;24.20;;
75820;SDS011;64454;51.984;9.838;2023-04-16T08:40:44;31.65;;;23.40;;
75820;SDS011;64454;51.984;9.838;2023-04-16T08:43:13;32.20;;;23.45;;
75820;SDS011;64454;51.984;9.838;2023-04-16T08:45:43;30.17;;;21.77;;
75820;SDS011;64454;51.984;9.838;2023-04-16T08:48:14;30.85;;;22.25;;
75820;SDS011;64454;51.984;9.838;2023-04-16T08:50:44;32.67;;;21.63;;
75820;SDS011;64454;51.984;9.838;2023-04-16T08:53:17;28.00;;;22.10;;
75820;SDS011;64454;51.984;9.838;2023-04-16T08:55:54;31.33;;;20.52;;
75820;SDS011;64454;51.984;9.838;2023-04-16T08:58:25;31.30;;;22.02;;
75820;SDS011;64454;51.984;9.838;2023-04-16T09:00:59;25.85;;;19.90;;
75820;SDS011;64454;51.984;9.838;2023-04-16T09:03:29;28.58;;;21.58;;
75820;SDS011;64454;51.984;9.838;2023-04-16T09:05:57;32.65;;;22.63;;
75820;SDS011;64454;51.984;9.838;2023-04-16T09:08:25;32.03;;;23.00;;
75820;SDS011;64454;51.984;9.838;2023-04-16T09:10:52;28.00;;;20.57;;
75820;SDS011;64454;51.984;9.838;2023-04-16T09:13:21;28.13;;;20.00;;
75820;SDS011;64454;51.984;9.838;2023-04-16T09:15:50;25.88;;;20.88;;
75820;SDS011;64454;51.984;9.838;2023-04-16T09:18:18;30.73;;;21.65;;
75820;SDS011;64454;51.984;9.838;2023-04-16T09:20:47;31.05;;;22.63;;
75820;SDS011;64454;51.984;9.838;2023-04-16T09:23:16;27.95;;;21.10;;
75820;SDS011;64454;51.984;9.838;2023-04-16T09:25:43;29.02;;;22.38;;
75820;SDS011;64454;51.984;9.838;2023-04-16T09:28:10;29.40;;;21.10;;
75820;SDS011;64454;51.984;9.838;2023-04-16T09:30:37;30.35;;;22.08;;
75820;SDS011;64454;51.984;9.838;2023-04-16T09:33:13;26.50;;;20.58;;
75820;SDS011;64454;51.984;9.838;2023-04-16T09:35:48;27.40;;;20.77;;
75820;SDS011;64454;51.984;9.838;2023-04-16T09:38:17;26.83;;;21.52;;
75820;SDS011;64454;51.984;9.838;2023-04-16T09:40:44;30.45;;;21.13;;
75820;SDS011;64454;51.984;9.838;2023-04-16T09:43:12;28.58;;;20.95;;
75820;SDS011;64454;51.984;9.838;2023-04-16T09:45:46;31.65;;;21.08;;
75820;SDS011;64454;51.984;9.838;2023-04-16T09:48:15;28.50;;;21.55;;
75820;SDS011;64454;51.984;9.838;2023-04-16T09:50:55;27.77;;;21.20;;
75820;SDS011;64454;51.984;9.838;2023-04-16T09:53:22;27.05;;;19.63;;
75820;SDS011;64454;51.984;9.838;2023-04-16T09:55:50;28.52;;;21.00;;
75820;SDS011;64454;51.984;9.838;2023-04-16T09:58:17;29.45;;;20.92;;
75820;SDS011;64454;51.984;9.838;2023-04-16T10:00:45;28.30;;;19.50;;
75820;SDS011;64454;51.984;9.838;2023-04-16T10:03:11;26.67;;;20.67;;
75820;SDS011;64454;51.984;9.838;2023-04-16T10:05:38;29.03;;;22.27;;
75820;SDS011;64454;51.984;9.838;2023-04-16T10:08:13;30.20;;;21.55;;
75820;SDS011;64454;51.984;9.838;2023-04-16T10:10:42;27.92;;;20.63;;
75820;SDS011;64454;51.984;9.838;2023-04-16T10:13:10;26.83;;;21.13;;
75820;SDS011;64454;51.984;9.838;2023-04-16T10:15:41;27.10;;;21.60;;
75820;SDS011;64454;51.984;9.838;2023-04-16T10:18:08;29.98;;;21.30;;
75820;SDS011;64454;51.984;9.838;2023-04-16T10:20:36;27.77;;;21.60;;
75820;SDS011;64454;51.984;9.838;2023-04-16T10:23:03;31.48;;;23.08;;
75820;SDS011;64454;51.984;9.838;2023-04-16T10:25:32;31.55;;;22.88;;
75820;SDS011;64454;51.984;9.838;2023-04-16T10:27:59;33.72;;;21.80;;
75820;SDS011;64454;51.984;9.838;2023-04-16T10:30:27;30.90;;;21.70;;
75820;SDS011;64454;51.984;9.838;2023-04-16T10:32:54;29.77;;;20.85;;
75820;SDS011;64454;51.984;9.838;2023-04-16T10:35:24;26.75;;;20.73;;
75820;SDS011;64454;51.984;9.838;2023-04-16T10:37:54;27.93;;;21.50;;
75820;SDS011;64454;51.984;9.838;2023-04-16T10:40:22;30.00;;;21.10;;
75820;SDS011;64454;51.984;9.838;2023-04-16T10:42:55;28.47;;;20.00;;
75820;SDS011;64454;51.984;9.838;2023-04-16T10:45:29;30.83;;;20.30;;
75820;SDS011;64454;51.984;9.838;2023-04-16T10:47:57;30.40;;;21.43;;
75820;SDS011;64454;51.984;9.838;2023-04-16T10:50:30;27.75;;;20.20;;
75820;SDS011;64454;51.984;9.838;2023-04-16T10:53:16;26.52;;;20.20;;
75820;SDS011;64454;51.984;9.838;2023-04-16T10:55:55;25.55;;;20.40;;
75820;SDS011;64454;51.984;9.838;2023-04-16T10:58:38;25.60;;;18.98;;
75820;SDS011;64454;51.984;9.838;2023-04-16T11:01:06;29.33;;;20.63;;
75820;SDS011;64454;51.984;9.838;2023-04-16T11:03:40;29.30;;;19.88;;
75820;SDS011;64454;51.984;9.838;2023-04-16T11:06:09;24.13;;;18.90;;
75820;SDS011;64454;51.984;9.838;2023-04-16T11:08:38;28.38;;;20.35;;
75820;SDS011;64454;51.984;9.838;2023-04-16T11:11:07;26.42;;;19.30;;
75820;SDS011;64454;51.984;9.838;2023-04-16T11:13:35;30.17;;;20.23;;
75820;SDS011;64454;51.984;9.838;2023-04-16T11:16:04;30.73;;;20.95;;
75820;SDS011;64454;51.984;9.838;2023-04-16T11:18:31;30.48;;;20.90;;
75820;SDS011;64454;51.984;9.838;2023-04-16T11:20:58;29.42;;;21.35;;
75820;SDS011;64454;51.984;9.838;2023-04-16T11:23:25;29.65;;;20.58;;
75820;SDS011;64454;51.984;9.838;2023-04-16T11:25:52;29.25;;;20.88;;
75820;SDS011;64454;51.984;9.838;2023-04-16T11:28:30;29.67;;;20.15;;
75820;SDS011;64454;51.984;9.838;2023-04-16T11:30:58;29.10;;;20.70;;
75820;SDS011;64454;51.984;9.838;2023-04-16T11:33:37;31.23;;;20.55;;
75820;SDS011;64454;51.984;9.838;2023-04-16T11:36:04;27.35;;;20.73;;
75820;SDS011;64454;51.984;9.838;2023-04-16T11:38:32;30.13;;;20.50;;
75820;SDS011;64454;51.984;9.838;2023-04-16T11:41:00;27.63;;;19.15;;
75820;SDS011;64454;51.984;9.838;2023-04-16T11:43:27;28.10;;;20.38;;
75820;SDS011;64454;51.984;9.838;2023-04-16T11:45:58;26.80;;;20.30;;
75820;SDS011;64454;51.984;9.838;2023-04-16T11:51:15;29.20;;;21.25;;
75820;SDS011;64454;51.984;9.838;2023-04-16T11:53:46;29.50;;;21.00;;
75820;SDS011;64454;51.984;9.838;2023-04-16T11:56:14;25.73;;;20.23;;
75820;SDS011;64454;51.984;9.838;2023-04-16T11:59:04;26.83;;;19.40;;
75820;SDS011;64454;51.984;9.838;2023-04-16T12:01:33;27.33;;;20.80;;
75820;SDS011;64454;51.984;9.838;2023-04-16T12:04:03;26.80;;;20.38;;
75820;SDS011;64454;51.984;9.838;2023-04-16T12:06:30;28.60;;;22.02;;
75820;SDS011;64454;51.984;9.838;2023-04-16T12:08:57;28.83;;;21.73;;
75820;SDS011;64454;51.984;9.838;2023-04-16T12:11:37;28.83;;;20.98;;
75820;SDS011;64454;51.984;9.838;2023-04-16T12:14:08;27.13;;;20.95;;
75820;SDS011;64454;51.984;9.838;2023-04-16T12:16:36;26.70;;;20.75;;
75820;SDS011;64454;51.984;9.838;2023-04-16T12:19:05;25.05;;;20.70;;
75820;SDS011;64454;51.984;9.838;2023-04-16T12:21:36;29.38;;;22.27;;
75820;SDS011;64454;51.984;9.838;2023-04-16T12:24:05;24.73;;;20.73;;
75820;SDS011;64454;51.984;9.838;2023-04-16T12:26:39;25.52;;;18.65;;
75820;SDS011;64454;51.984;9.838;2023-04-16T12:29:14;25.80;;;18.40;;
75820;SDS011;64454;51.984;9.838;2023-04-16T12:31:46;22.98;;;19.10;;
75820;SDS011;64454;51.984;9.838;2023-04-16T12:34:16;24.73;;;18.93;;
75820;SDS011;64454;51.984;9.838;2023-04-16T12:36:46;23.80;;;19.30;;
75820;SDS011;64454;51.984;9.838;2023-04-16T12:39:16;23.10;;;18.63;;
75820;SDS011;64454;51.984;9.838;2023-04-16T12:41:46;22.73;;;18.77;;
75820;SDS011;64454;51.984;9.838;2023-04-16T12:44:15;21.95;;;18.55;;
75820;SDS011;64454;51.984;9.838;2023-04-16T12:46:44;24.00;;;19.85;;
75820;SDS011;64454;51.984;9.838;2023-04-16T12:49:11;20.60;;;18.40;;
75820;SDS011;64454;51.984;9.838;2023-04-16T12:51:39;23.83;;;19.20;;
75820;SDS011;64454;51.984;9.838;2023-04-16T12:54:06;20.27;;;17.70;;
75820;SDS011;64454;51.984;9.838;2023-04-16T12:56:33;19.15;;;16.83;;
75820;SDS011;64454;51.984;9.838;2023-04-16T12:59:01;24.38;;;18.10;;
75820;SDS011;64454;51.984;9.838;2023-04-16T13:01:27;22.67;;;18.27;;
75820;SDS011;64454;51.984;9.838;2023-04-16T13:03:54;20.20;;;17.17;;
75820;SDS011;64454;51.984;9.838;2023-04-16T13:06:21;18.65;;;16.65;;
75820;SDS011;64454;51.984;9.838;2023-04-16T13:08:49;19.90;;;16.67;;
75820;SDS011;64454;51.984;9.838;2023-04-16T13:11:16;21.20;;;16.73;;
75820;SDS011;64454;51.984;9.838;2023-04-16T13:13:44;21.52;;;17.60;;
75820;SDS011;64454;51.984;9.838;2023-04-16T13:16:11;21.13;;;18.17;;
75820;SDS011;64454;51.984;9.838;2023-04-16T13:18:37;20.67;;;17.30;;
75820;SDS011;64454;51.984;9.838;2023-04-16T13:21:05;22.20;;;17.92;;
75820;SDS011;64454;51.984;9.838;2023-04-16T13:23:33;19.63;;;16.40;;
75820;SDS011;64454;51.984;9.838;2023-04-16T13:26:01;22.70;;;17.10;;
75820;SDS011;64454;51.984;9.838;2023-04-16T13:28:28;19.10;;;16.80;;
75820;SDS011;64454;51.984;9.838;2023-04-16T13:30:55;22.42;;;17.75;;
75820;SDS011;64454;51.984;9.838;2023-04-16T13:33:22;22.70;;;18.08;;
75820;SDS011;64454;51.984;9.838;2023-04-16T13:35:49;21.53;;;18.13;;
75820;SDS011;64454;51.984;9.838;2023-04-16T13:38:16;19.98;;;17.33;;
75820;SDS011;64454;51.984;9.838;2023-04-16T13:40:43;20.35;;;16.67;;
75820;SDS011;64454;51.984;9.838;2023-04-16T13:43:12;19.27;;;16.75;;
75820;SDS011;64454;51.984;9.838;2023-04-16T13:45:41;20.05;;;17.05;;
75820;SDS011;64454;51.984;9.838;2023-04-16T13:48:08;20.02;;;17.50;;
75820;SDS011;64454;51.984;9.838;2023-04-16T13:50:35;19.70;;;16.45;;
75820;SDS011;64454;51.984;9.838;2023-04-16T13:53:01;18.52;;;15.40;;
75820;SDS011;64454;51.984;9.838;2023-04-16T13:55:29;19.58;;;17.33;;
75820;SDS011;64454;51.984;9.838;2023-04-16T13:57:56;19.80;;;16.90;;
75820;SDS011;64454;51.984;9.838;2023-04-16T14:00:25;20.38;;;17.40;;
75820;SDS011;64454;51.984;9.838;2023-04-16T14:02:52;23.03;;;18.70;;
75820;SDS011;64454;51.984;9.838;2023-04-16T14:05:19;20.77;;;17.53;;
75820;SDS011;64454;51.984;9.838;2023-04-16T14:07:47;23.35;;;18.52;;
75820;SDS011;64454;51.984;9.838;2023-04-16T14:10:14;23.88;;;19.42;;
75820;SDS011;64454;51.984;9.838;2023-04-16T14:12:41;24.63;;;20.52;;
75820;SDS011;64454;51.984;9.838;2023-04-16T14:15:08;27.27;;;21.40;;
75820;SDS011;64454;51.984;9.838;2023-04-16T14:17:40;23.48;;;19.70;;
75820;SDS011;64454;51.984;9.838;2023-04-16T14:20:08;25.02;;;20.10;;
75820;SDS011;64454;51.984;9.838;2023-04-16T14:22:36;24.90;;;20.08;;
75820;SDS011;64454;51.984;9.838;2023-04-16T14:25:04;24.90;;;20.60;;
75820;SDS011;64454;51.984;9.838;2023-04-16T14:27:31;28.40;;;21.20;;